MSC Suez — HPMS — position and weather

sailwx.info

Track history (hours):
 
Tides and Currents Weather Stations Pressure Air Temp Water Temp Dewpoint Dewpoint Depression Visibility Wind Speed Wind Dir Waves Ship Positions

MSC Suez

Last reported at 2014-Aug-31 05:31 UTC. Time now 2014-Aug-31 06:33 UTC.
Position N 37°39' E 010°30'.

Length 237 m; draft 8 m.

Type: Ship (hazmat cat D). MMSI: 355289000.

Date/timePositionNaut miles runAvg speedWind from/ knotsBaromVisibWave heightAir tempDewpointWater temp
2014-Aug-31 05:31N 37°39' E 010°30'1617.0
2014-Aug-31 04:33N 37°47' E 010°11'1717.1
2014-Aug-31 03:32N 37°53' E 009°51'1717.1
2014-Aug-31 02:34N 37°56' E 009°30'1716.7
2014-Aug-31 01:33N 37°60' E 009°09'1716.9
2014-Aug-31 00:33N 38°03' E 008°48'1717.2
2014-Aug-30 23:33N 38°06' E 008°26'1917.2
2014-Aug-30 22:28N 38°10' E 008°03'1816.7
2014-Aug-30 21:23N 38°14' E 007°41'3616.3
2014-Aug-30 19:12N 38°21' E 006°57'1116.1
2014-Aug-30 18:32N 38°24' E 006°43'1916.3
2014-Aug-30 17:23N 38°27' E 006°20'1416.8
2014-Aug-30 16:33N 38°30' E 006°02'1716.7
2014-Aug-30 15:33N 38°34' E 005°42'3616.2
2014-Aug-30 13:20N 38°41' E 004°56'2816.0
2014-Aug-30 11:33N 38°47' E 004°20'1716.1
2014-Aug-30 10:30N 38°50' E 003°59'3415.7
2014-Aug-30 08:21N 38°57' E 003°17'1215.3
2014-Aug-30 07:33N 38°60' E 003°02'1515.3
2014-Aug-30 06:33N 39°03' E 002°42'1515.4
2014-Aug-30 05:33N 39°06' E 002°23'1615.7
2014-Aug-30 04:33N 39°10' E 002°03'1616.1
2014-Aug-30 03:33N 39°13' E 001°43'1716.7
2014-Aug-30 02:33N 39°16' E 001°22'1716.8
2014-Aug-30 01:33N 39°18' E 000°60'5416.5
2014-Aug-29 22:16N 39°24' W 000°10'810.7
2014-Aug-29 21:33N 39°26' W 000°19'0 0.0
2014-Aug-29 20:31N 39°26' W 000°19'0 0.0
2014-Aug-29 19:28N 39°26' W 000°19'0 0.0
2014-Aug-29 18:31N 39°26' W 000°19'0 0.0
2014-Aug-29 17:25N 39°26' W 000°19'0 0.0
2014-Aug-29 16:31N 39°26' W 000°19'0 0.0
2014-Aug-29 15:31N 39°26' W 000°19'0 0.0
2014-Aug-29 14:31N 39°26' W 000°19'0 0.0
2014-Aug-29 13:25N 39°26' W 000°19'0 0.0
2014-Aug-29 12:31N 39°26' W 000°19'0 0.0
2014-Aug-29 11:14N 39°26' W 000°19'0 0.0
2014-Aug-29 10:32N 39°26' W 000°19'0 0.0
2014-Aug-29 06:23N 39°26' W 000°19'0 0.0
2014-Aug-29 05:32N 39°26' W 000°19'0 0.0
2014-Aug-29 04:32N 39°26' W 000°19'0 0.0
2014-Aug-29 03:32N 39°26' W 000°19'0 0.0
2014-Aug-29 02:32N 39°26' W 000°19'0 0.0
2014-Aug-29 01:32N 39°26' W 000°19'0 0.0
2014-Aug-29 00:29N 39°26' W 000°19'0 0.0
2014-Aug-28 23:32N 39°26' W 000°19'0 0.0
2014-Aug-28 22:33N 39°26' W 000°19'3 3.1
2014-Aug-28 21:33N 39°24' W 000°16'1 0.7
2014-Aug-28 20:28N 39°24' W 000°15'3516.4
2014-Aug-28 18:21N 38°57' E 000°13'1517.5
2014-Aug-28 17:28N 38°45' E 000°26'1415.2
2014-Aug-28 16:32N 38°32' E 000°19'1717.4
2014-Aug-28 15:33N 38°18' E 000°07'3517.1
2014-Aug-28 13:31N 37°48' W 000°17'1616.9
2014-Aug-28 12:33N 37°35' W 000°29'1616.0
2014-Aug-28 11:33N 37°24' W 000°44'1615.9
2014-Aug-28 10:31N 37°13' W 000°59'2216.2
2014-Aug-28 09:11N 36°58' W 001°19'1015.5
2014-Aug-28 08:33N 36°53' W 001°29'2216.0
2014-Aug-28 07:12N 36°39' W 001°49'1416.9
2014-Aug-28 06:22N 36°29' W 002°02'1315.6
2014-Aug-28 05:33N 36°22' W 002°15'1616.4
2014-Aug-28 04:33N 36°19' W 002°35'13017.5
2014-Aug-27 21:09N 35°59' W 005°14'22017.3
2014-Aug-27 08:25N 33°42' W 008°44'1517.3
2014-Aug-27 07:33N 33°31' W 008°55'1817.5
2014-Aug-27 06:33N 33°18' W 009°10'1716.8
2014-Aug-27 05:33N 33°06' W 009°23'1716.5
2014-Aug-27 04:33N 32°53' W 009°35'1716.6
2014-Aug-27 03:33N 32°40' W 009°48'1616.3
2014-Aug-27 02:33N 32°28' W 010°01'1716.7
2014-Aug-27 01:33N 32°14' W 010°12'1616.1
2014-Aug-27 00:33N 32°01' W 010°22'1616.0
2014-Aug-26 23:33N 31°47' W 010°33'1616.1
2014-Aug-26 22:33N 31°34' W 010°43'1616.3
2014-Aug-26 21:34N 31°20' W 010°53'1616.4
2014-Aug-26 20:33N 31°06' W 011°04'1616.3
2014-Aug-26 19:33N 30°53' W 011°14'1716.6
2014-Aug-26 18:33N 30°39' W 011°24'  
Track history (hours):
 
Tides and Currents Weather Stations Pressure Air Temp Water Temp Dewpoint Dewpoint Depression Visibility Wind Speed Wind Dir Waves Ship Positions

MSC Suez

Last reported at 2014-Aug-31 05:31 UTC. Time now 2014-Aug-31 06:33 UTC.
Position N 37°39' E 010°30'.

Length 237 m; draft 8 m.

Type: Ship (hazmat cat D). MMSI: 355289000.

Date/timePositionNaut miles runAvg speedWind from/ knotsBaromVisibWave heightAir tempDewpointWater temp
2014-Aug-31 05:31N 37°39' E 010°30'1617.0
2014-Aug-31 04:33N 37°47' E 010°11'1717.1
2014-Aug-31 03:32N 37°53' E 009°51'1717.1
2014-Aug-31 02:34N 37°56' E 009°30'1716.7
2014-Aug-31 01:33N 37°60' E 009°09'1716.9
2014-Aug-31 00:33N 38°03' E 008°48'1717.2
2014-Aug-30 23:33N 38°06' E 008°26'1917.2
2014-Aug-30 22:28N 38°10' E 008°03'1816.7
2014-Aug-30 21:23N 38°14' E 007°41'3616.3
2014-Aug-30 19:12N 38°21' E 006°57'1116.1
2014-Aug-30 18:32N 38°24' E 006°43'1916.3
2014-Aug-30 17:23N 38°27' E 006°20'1416.8
2014-Aug-30 16:33N 38°30' E 006°02'1716.7
2014-Aug-30 15:33N 38°34' E 005°42'3616.2
2014-Aug-30 13:20N 38°41' E 004°56'2816.0
2014-Aug-30 11:33N 38°47' E 004°20'1716.1
2014-Aug-30 10:30N 38°50' E 003°59'3415.7
2014-Aug-30 08:21N 38°57' E 003°17'1215.3
2014-Aug-30 07:33N 38°60' E 003°02'1515.3
2014-Aug-30 06:33N 39°03' E 002°42'1515.4
2014-Aug-30 05:33N 39°06' E 002°23'1615.7
2014-Aug-30 04:33N 39°10' E 002°03'1616.1
2014-Aug-30 03:33N 39°13' E 001°43'1716.7
2014-Aug-30 02:33N 39°16' E 001°22'1716.8
2014-Aug-30 01:33N 39°18' E 000°60'5416.5
2014-Aug-29 22:16N 39°24' W 000°10'810.7
2014-Aug-29 21:33N 39°26' W 000°19'0 0.0
2014-Aug-29 20:31N 39°26' W 000°19'0 0.0
2014-Aug-29 19:28N 39°26' W 000°19'0 0.0
2014-Aug-29 18:31N 39°26' W 000°19'0 0.0
2014-Aug-29 17:25N 39°26' W 000°19'0 0.0
2014-Aug-29 16:31N 39°26' W 000°19'0 0.0
2014-Aug-29 15:31N 39°26' W 000°19'0 0.0
2014-Aug-29 14:31N 39°26' W 000°19'0 0.0
2014-Aug-29 13:25N 39°26' W 000°19'0 0.0
2014-Aug-29 12:31N 39°26' W 000°19'0 0.0
2014-Aug-29 11:14N 39°26' W 000°19'0 0.0
2014-Aug-29 10:32N 39°26' W 000°19'0 0.0
2014-Aug-29 06:23N 39°26' W 000°19'0 0.0
2014-Aug-29 05:32N 39°26' W 000°19'0 0.0
2014-Aug-29 04:32N 39°26' W 000°19'0 0.0
2014-Aug-29 03:32N 39°26' W 000°19'0 0.0
2014-Aug-29 02:32N 39°26' W 000°19'0 0.0
2014-Aug-29 01:32N 39°26' W 000°19'0 0.0
2014-Aug-29 00:29N 39°26' W 000°19'0 0.0
2014-Aug-28 23:32N 39°26' W 000°19'0 0.0
2014-Aug-28 22:33N 39°26' W 000°19'3 3.1
2014-Aug-28 21:33N 39°24' W 000°16'1 0.7
2014-Aug-28 20:28N 39°24' W 000°15'3516.4
2014-Aug-28 18:21N 38°57' E 000°13'1517.5
2014-Aug-28 17:28N 38°45' E 000°26'1415.2
2014-Aug-28 16:32N 38°32' E 000°19'1717.4
2014-Aug-28 15:33N 38°18' E 000°07'3517.1
2014-Aug-28 13:31N 37°48' W 000°17'1616.9
2014-Aug-28 12:33N 37°35' W 000°29'1616.0
2014-Aug-28 11:33N 37°24' W 000°44'1615.9
2014-Aug-28 10:31N 37°13' W 000°59'2216.2
2014-Aug-28 09:11N 36°58' W 001°19'1015.5
2014-Aug-28 08:33N 36°53' W 001°29'2216.0
2014-Aug-28 07:12N 36°39' W 001°49'1416.9
2014-Aug-28 06:22N 36°29' W 002°02'1315.6
2014-Aug-28 05:33N 36°22' W 002°15'1616.4
2014-Aug-28 04:33N 36°19' W 002°35'13017.5
2014-Aug-27 21:09N 35°59' W 005°14'22017.3
2014-Aug-27 08:25N 33°42' W 008°44'1517.3
2014-Aug-27 07:33N 33°31' W 008°55'1817.5
2014-Aug-27 06:33N 33°18' W 009°10'1716.8
2014-Aug-27 05:33N 33°06' W 009°23'1716.5
2014-Aug-27 04:33N 32°53' W 009°35'1716.6
2014-Aug-27 03:33N 32°40' W 009°48'1616.3
2014-Aug-27 02:33N 32°28' W 010°01'1716.7
2014-Aug-27 01:33N 32°14' W 010°12'1616.1
2014-Aug-27 00:33N 32°01' W 010°22'1616.0
2014-Aug-26 23:33N 31°47' W 010°33'1616.1
2014-Aug-26 22:33N 31°34' W 010°43'1616.3
2014-Aug-26 21:34N 31°20' W 010°53'1616.4
2014-Aug-26 20:33N 31°06' W 011°04'1616.3
2014-Aug-26 19:33N 30°53' W 011°14'1716.6
2014-Aug-26 18:33N 30°39' W 011°24'  

Dump ship's entire track history